createdAt,value
2018-09-03T00:01:54.532Z,19.56
2018-09-03T00:04:24.045Z,19.53
2018-09-03T00:06:54.745Z,19.51
2018-09-03T00:09:24.349Z,19.48
2018-09-03T00:11:54.000Z,19.46
2018-09-03T00:14:23.066Z,19.48
2018-09-03T00:16:52.052Z,19.46
2018-09-03T00:19:21.423Z,19.48
2018-09-03T00:21:50.446Z,19.47
2018-09-03T00:24:19.680Z,19.48
2018-09-03T00:26:54.361Z,19.48
2018-09-03T00:29:23.422Z,19.41
2018-09-03T00:31:57.714Z,19.39
2018-09-03T00:34:31.791Z,19.38
2018-09-03T00:41:20.567Z,19.36
2018-09-03T00:43:54.958Z,19.30
2018-09-03T00:46:29.126Z,19.26
2018-09-03T00:48:59.311Z,19.29
2018-09-03T00:51:28.374Z,19.23
2018-09-03T00:53:59.477Z,19.21
2018-09-03T00:56:29.346Z,19.23
2018-09-03T00:58:58.375Z,19.24
2018-09-03T01:01:27.351Z,19.23
2018-09-03T01:04:00.397Z,19.19
2018-09-03T01:06:32.218Z,19.14
2018-09-03T01:09:01.226Z,19.06
2018-09-03T01:11:32.555Z,19.08
2018-09-03T01:14:02.176Z,19.11
2018-09-03T01:16:31.222Z,19.16
2018-09-03T01:19:00.676Z,19.19
2018-09-03T01:21:29.752Z,19.26
2018-09-03T01:23:58.796Z,19.27
2018-09-03T01:26:39.262Z,19.31
2018-09-03T01:29:08.214Z,19.32
2018-09-03T01:31:37.206Z,19.33
2018-09-03T01:34:06.175Z,19.33
2018-09-03T01:36:35.206Z,19.28
2018-09-03T01:39:05.101Z,19.30
2018-09-03T01:41:34.397Z,19.33
2018-09-03T01:44:04.075Z,19.31
2018-09-03T01:46:34.768Z,19.33
2018-09-03T01:49:05.174Z,19.32
2018-09-03T01:51:34.237Z,19.33
2018-09-03T01:54:03.866Z,19.32
2018-09-03T01:56:33.376Z,19.32
2018-09-03T01:59:02.404Z,19.31
2018-09-03T02:01:31.417Z,19.32
2018-09-03T02:04:00.447Z,19.34
2018-09-03T02:06:29.395Z,19.33
2018-09-03T02:11:38.406Z,19.30
2018-09-03T02:14:25.181Z,19.30
2018-09-03T02:16:54.251Z,19.31
2018-09-03T02:19:24.766Z,19.32
2018-09-03T02:21:53.833Z,19.31
2018-09-03T02:24:22.866Z,19.28
2018-09-03T02:26:52.561Z,19.29
2018-09-03T02:29:22.947Z,19.30
2018-09-03T02:31:51.977Z,19.31
2018-09-03T02:34:24.147Z,19.33
2018-09-03T02:36:57.269Z,19.32
2018-09-03T02:39:26.393Z,19.32
2018-09-03T02:41:55.428Z,19.34
2018-09-03T02:44:32.294Z,19.33
2018-09-03T02:47:02.330Z,19.28
2018-09-03T02:49:31.381Z,19.31
2018-09-03T02:52:00.449Z,19.32
2018-09-03T02:54:29.440Z,19.24
2018-09-03T02:57:07.259Z,19.29
2018-09-03T03:02:11.511Z,19.33
2018-09-03T03:04:44.889Z,19.34
2018-09-03T03:07:13.883Z,19.33
2018-09-03T03:09:42.889Z,19.34
2018-09-03T03:12:23.462Z,19.35
2018-09-03T03:14:54.796Z,19.34
2018-09-03T03:17:23.838Z,19.35
2018-09-03T03:19:53.285Z,19.33
2018-09-03T03:22:22.334Z,19.34
2018-09-03T03:24:51.292Z,19.33
2018-09-03T03:27:27.268Z,19.33
2018-09-03T03:29:56.219Z,19.30
2018-09-03T03:32:25.217Z,19.28
2018-09-03T03:34:54.792Z,19.24
2018-09-03T03:37:23.802Z,19.24
2018-09-03T03:39:53.544Z,19.24
2018-09-03T03:42:23.002Z,19.20
2018-09-03T03:44:53.657Z,19.20
2018-09-03T03:47:22.759Z,19.17
2018-09-03T03:49:56.139Z,19.19
2018-09-03T03:52:25.125Z,19.25
2018-09-03T03:54:54.207Z,19.28
2018-09-03T03:57:23.340Z,19.28
2018-09-03T03:59:52.769Z,19.18
2018-09-03T04:02:25.777Z,19.17
2018-09-03T04:04:54.874Z,19.17
2018-09-03T04:07:24.378Z,19.19
2018-09-03T04:09:53.312Z,19.22
2018-09-03T04:12:22.814Z,19.22
2018-09-03T04:14:51.938Z,19.25
2018-09-03T04:17:20.995Z,19.27
2018-09-03T04:19:55.821Z,19.29
2018-09-03T04:22:25.768Z,19.25
2018-09-03T04:24:54.780Z,19.29
2018-09-03T04:27:25.002Z,19.28
2018-09-03T04:29:54.186Z,19.27
2018-09-03T04:32:25.191Z,19.25
2018-09-03T04:34:54.617Z,19.25
2018-09-03T04:37:23.705Z,19.25
2018-09-03T04:39:52.778Z,19.22
2018-09-03T04:42:22.204Z,19.20
2018-09-03T04:44:51.210Z,19.22
2018-09-03T04:47:20.234Z,19.22
2018-09-03T04:49:49.462Z,19.23
2018-09-03T04:52:19.306Z,19.26
2018-09-03T04:54:48.721Z,19.27
2018-09-03T04:57:17.879Z,19.25
2018-09-03T04:59:47.059Z,19.21
2018-09-03T05:02:17.083Z,19.27
2018-09-03T05:04:48.279Z,19.21
2018-09-03T05:07:17.607Z,19.22
2018-09-03T05:09:49.029Z,19.18
2018-09-03T05:12:20.801Z,19.12
2018-09-03T05:14:50.048Z,19.19
2018-09-03T05:17:25.177Z,19.23
2018-09-03T05:19:54.373Z,19.21
2018-09-03T05:22:23.712Z,19.25
2018-09-03T05:24:54.537Z,19.25
2018-09-03T05:27:23.531Z,19.23
2018-09-03T05:29:52.853Z,19.21
2018-09-03T05:35:55.355Z,19.21
2018-09-03T05:38:24.794Z,19.25
2018-09-03T05:40:54.386Z,19.18
2018-09-03T05:43:23.837Z,19.27
2018-09-03T05:45:53.054Z,19.25
2018-09-03T05:48:28.934Z,19.23
2018-09-03T05:50:58.129Z,19.25
2018-09-03T05:53:27.369Z,19.28
2018-09-03T05:55:57.047Z,19.29
2018-09-03T05:58:29.720Z,19.32
2018-09-03T06:00:59.921Z,19.35
2018-09-03T06:03:30.953Z,19.36
2018-09-03T06:06:00.100Z,19.41
2018-09-03T06:08:29.512Z,19.46
2018-09-03T06:11:05.160Z,19.49
2018-09-03T06:13:34.217Z,19.51
2018-09-03T06:16:04.349Z,19.53
2018-09-03T06:18:34.181Z,19.54
2018-09-03T06:21:03.597Z,19.50
2018-09-03T06:23:33.226Z,19.51
2018-09-03T06:26:05.591Z,19.53
2018-09-03T06:31:10.759Z,19.54
2018-09-03T06:33:39.935Z,19.59
2018-09-03T06:36:09.273Z,19.59
2018-09-03T06:38:38.668Z,19.66
2018-09-03T06:41:07.830Z,19.68
2018-09-03T06:43:37.376Z,19.70
2018-09-03T06:46:06.674Z,19.78
2018-09-03T06:48:36.057Z,19.81
2018-09-03T06:51:11.692Z,19.86
2018-09-03T06:53:41.083Z,19.87
2018-09-03T06:56:12.987Z,19.94
2018-09-03T06:58:42.469Z,20.01
2018-09-03T07:01:12.149Z,20.07
2018-09-03T07:03:52.345Z,20.13
2018-09-03T07:06:21.779Z,20.18
2018-09-03T07:08:50.783Z,20.25
2018-09-03T07:11:26.500Z,20.26
2018-09-03T07:13:56.045Z,20.26
2018-09-03T07:16:25.677Z,20.29
2018-09-03T07:18:54.995Z,20.28
2018-09-03T07:21:24.844Z,20.27
2018-09-03T07:23:54.547Z,20.27
2018-09-03T07:26:23.875Z,20.22
2018-09-03T07:28:53.567Z,20.27
2018-09-03T07:31:22.648Z,20.27
2018-09-03T07:34:02.476Z,20.28
2018-09-03T07:36:31.994Z,20.28
2018-09-03T07:39:06.975Z,20.31
2018-09-03T07:41:36.339Z,20.36
2018-09-03T07:44:06.876Z,20.43
2018-09-03T07:46:36.407Z,20.46
2018-09-03T07:49:05.624Z,20.49
2018-09-03T07:51:35.210Z,20.48
2018-09-03T07:54:05.254Z,20.56
2018-09-03T07:56:35.972Z,20.55
2018-09-03T07:59:10.106Z,20.62
2018-09-03T08:01:40.469Z,20.71
2018-09-03T08:04:09.899Z,20.83
2018-09-03T08:06:39.274Z,20.90
2018-09-03T08:09:10.110Z,20.96
2018-09-03T08:11:39.427Z,21.05
2018-09-03T08:14:15.199Z,21.11
2018-09-03T08:16:44.458Z,21.20
2018-09-03T08:19:19.804Z,21.19
2018-09-03T08:21:49.108Z,21.20
2018-09-03T08:24:21.324Z,21.26
2018-09-03T08:26:51.899Z,21.26
2018-09-03T08:29:21.156Z,21.28
2018-09-03T08:31:50.793Z,21.34
2018-09-03T08:34:20.468Z,21.41
2018-09-03T08:36:49.892Z,21.51
2018-09-03T08:39:20.143Z,21.61
2018-09-03T08:41:54.657Z,21.67
2018-09-03T08:44:25.174Z,21.81
2018-09-03T08:49:46.240Z,21.95
2018-09-03T08:52:17.454Z,22.00
2018-09-03T08:54:47.157Z,22.11
2018-09-03T08:57:22.153Z,22.17
2018-09-03T08:59:52.957Z,22.21
2018-09-03T09:02:22.176Z,22.28
2018-09-03T09:04:51.312Z,22.36
2018-09-03T09:07:20.881Z,22.35
2018-09-03T09:09:50.819Z,22.40
2018-09-03T09:12:20.017Z,22.39
2018-09-03T09:14:50.402Z,22.44
2018-09-03T09:17:19.758Z,22.52
2018-09-03T09:19:49.013Z,22.65
2018-09-03T09:22:19.294Z,22.72
2018-09-03T09:24:48.518Z,22.82
2018-09-03T09:27:17.651Z,22.91
2018-09-03T09:29:47.797Z,23.04
2018-09-03T09:32:17.157Z,23.07
2018-09-03T09:34:51.289Z,23.03
2018-09-03T09:37:23.073Z,23.04
2018-09-03T09:39:52.541Z,22.93
2018-09-03T09:42:21.878Z,22.89
2018-09-03T09:44:52.477Z,22.78
2018-09-03T09:47:21.798Z,22.71
2018-09-03T09:49:51.365Z,22.68
2018-09-03T09:52:24.251Z,22.66
2018-09-03T09:54:53.620Z,22.66
2018-09-03T09:57:22.973Z,22.62
2018-09-03T09:59:55.215Z,22.55
2018-09-03T10:02:24.777Z,22.48
2018-09-03T10:04:54.125Z,22.43
2018-09-03T10:07:25.576Z,22.35
2018-09-03T10:09:56.893Z,22.28
2018-09-03T10:12:33.068Z,22.28
2018-09-03T10:15:03.605Z,22.21
2018-09-03T10:17:38.259Z,22.28
2018-09-03T10:20:07.816Z,22.36
2018-09-03T10:22:37.373Z,22.41
2018-09-03T10:25:08.444Z,22.45
2018-09-03T10:27:37.949Z,22.54
2018-09-03T10:30:08.615Z,22.74
2018-09-03T10:32:38.003Z,22.85
2018-09-03T10:35:07.387Z,23.20
2018-09-03T10:37:40.155Z,23.37
2018-09-03T10:40:09.569Z,23.59
2018-09-03T10:42:39.012Z,23.80
2018-09-03T10:45:13.642Z,23.88
2018-09-03T10:47:42.709Z,23.94
2018-09-03T10:50:12.032Z,24.14
2018-09-03T10:52:47.846Z,24.18
2018-09-03T10:55:17.060Z,24.51
2018-09-03T10:57:46.265Z,24.95
2018-09-03T11:00:17.940Z,25.34
2018-09-03T11:02:47.099Z,25.65
2018-09-03T11:05:16.269Z,26.05
2018-09-03T11:07:46.872Z,26.35
2018-09-03T11:10:16.175Z,26.54
2018-09-03T11:12:45.424Z,26.32
2018-09-03T11:15:17.897Z,26.22
2018-09-03T11:17:47.247Z,26.13
2018-09-03T11:20:22.608Z,25.98
2018-09-03T11:22:51.736Z,25.93
2018-09-03T11:25:22.893Z,25.80
2018-09-03T11:27:54.386Z,25.80
2018-09-03T11:30:24.037Z,25.81
2018-09-03T11:32:56.120Z,25.90
2018-09-03T11:35:26.754Z,25.94
2018-09-03T11:37:57.190Z,26.23
2018-09-03T11:40:34.888Z,26.46
2018-09-03T11:43:04.466Z,26.62
2018-09-03T11:45:33.974Z,26.76
2018-09-03T11:48:04.232Z,26.88
2018-09-03T11:50:36.465Z,26.90
2018-09-03T11:53:08.027Z,26.50
2018-09-03T11:55:43.061Z,26.51
2018-09-03T11:58:18.706Z,26.43
2018-09-03T12:00:48.243Z,26.28
2018-09-03T12:03:17.508Z,26.35
2018-09-03T12:05:49.305Z,26.67
2018-09-03T12:08:19.495Z,26.89
2018-09-03T12:10:48.591Z,27.02
2018-09-03T12:13:18.401Z,27.07
2018-09-03T12:15:52.609Z,27.00
2018-09-03T12:18:21.939Z,27.13
2018-09-03T12:21:02.860Z,27.19
2018-09-03T12:23:32.182Z,27.02
2018-09-03T12:26:02.080Z,26.93
2018-09-03T12:28:32.075Z,26.73
2018-09-03T12:31:07.457Z,26.68
2018-09-03T12:33:36.717Z,26.48
2018-09-03T12:36:07.299Z,26.66
2018-09-03T12:38:38.784Z,25.93
2018-09-03T12:41:08.070Z,26.23
2018-09-03T12:43:44.352Z,26.05
2018-09-03T12:46:13.683Z,25.98
2018-09-03T12:48:43.003Z,25.64
2018-09-03T12:51:12.574Z,25.21
2018-09-03T12:53:41.912Z,25.18
2018-09-03T12:56:11.046Z,25.43
2018-09-03T12:58:41.492Z,25.64
2018-09-03T13:01:10.694Z,25.67
2018-09-03T13:03:39.935Z,25.67
2018-09-03T13:06:21.102Z,25.68
2018-09-03T13:08:50.476Z,25.70
2018-09-03T13:11:21.603Z,25.62
2018-09-03T13:13:51.671Z,25.71
2018-09-03T13:16:20.859Z,25.43
2018-09-03T13:18:52.224Z,25.56
2018-09-03T13:21:21.408Z,25.61
2018-09-03T13:23:51.963Z,25.62
2018-09-03T13:26:23.364Z,25.55
2018-09-03T13:28:52.585Z,25.63
2018-09-03T13:31:21.809Z,25.74
2018-09-03T13:33:51.561Z,25.89
2018-09-03T13:36:24.513Z,26.11
2018-09-03T13:38:54.004Z,26.58
2018-09-03T13:41:23.913Z,27.25
2018-09-03T13:43:53.144Z,27.92
2018-09-03T13:46:22.412Z,28.11
2018-09-03T13:48:52.118Z,28.06
2018-09-03T13:51:21.420Z,27.97
2018-09-03T13:53:50.649Z,27.82
2018-09-03T13:56:20.886Z,27.59
2018-09-03T13:58:50.389Z,27.53
2018-09-03T14:01:19.632Z,27.26
2018-09-03T14:03:50.391Z,27.07
2018-09-03T14:06:20.203Z,27.03
2018-09-03T14:11:24.319Z,26.80
2018-09-03T14:13:53.765Z,26.69
2018-09-03T14:16:24.554Z,26.57
2018-09-03T14:18:54.819Z,26.55
2018-09-03T14:21:24.227Z,26.48
2018-09-03T14:23:53.879Z,26.39
2018-09-03T14:26:23.509Z,26.37
2018-09-03T14:28:53.822Z,26.26
2018-09-03T14:31:24.825Z,26.25
2018-09-03T14:33:54.296Z,26.21
2018-09-03T14:36:24.252Z,26.11
2018-09-03T14:38:54.011Z,25.96
2018-09-03T14:41:23.606Z,25.95
2018-09-03T14:43:52.850Z,25.91
2018-09-03T14:46:24.820Z,25.91
2018-09-03T14:48:53.993Z,25.92
2018-09-03T14:51:23.370Z,25.89
2018-09-03T14:53:53.107Z,25.79
2018-09-03T14:56:23.258Z,25.75
2018-09-03T14:58:52.461Z,25.75
2018-09-03T15:01:23.399Z,25.73
2018-09-03T15:03:52.922Z,25.75
2018-09-03T15:06:22.363Z,25.70
2018-09-03T15:08:52.071Z,25.66
2018-09-03T15:11:21.367Z,25.69
2018-09-03T15:13:58.432Z,25.74
2018-09-03T15:16:31.014Z,25.69
2018-09-03T15:19:01.658Z,25.71
2018-09-03T15:21:30.766Z,25.76
2018-09-03T15:24:03.868Z,25.80
2018-09-03T15:26:33.845Z,25.77
2018-09-03T15:29:17.990Z,25.99
2018-09-03T15:31:58.855Z,26.30
2018-09-03T15:34:27.960Z,26.43
2018-09-03T15:37:01.553Z,26.47
2018-09-03T15:39:30.876Z,26.47
2018-09-03T15:42:00.293Z,26.42
2018-09-03T15:44:32.691Z,26.44
2018-09-03T15:47:02.476Z,26.45
2018-09-03T15:49:31.661Z,26.52
2018-09-03T15:52:04.901Z,26.78
2018-09-03T15:54:39.849Z,27.04
2018-09-03T15:57:09.173Z,27.31
2018-09-03T15:59:38.271Z,27.58
2018-09-03T16:02:07.553Z,27.62
2018-09-03T16:04:42.849Z,27.53
2018-09-03T16:07:12.205Z,27.53
2018-09-03T16:09:41.820Z,27.47
2018-09-03T16:12:11.317Z,27.35
2018-09-03T16:14:40.431Z,27.25
2018-09-03T16:17:09.430Z,27.08
2018-09-03T16:19:38.969Z,26.93
2018-09-03T16:22:08.483Z,26.77
2018-09-03T16:24:37.816Z,26.60
2018-09-03T16:27:08.562Z,26.42
2018-09-03T16:29:37.776Z,26.33
2018-09-03T16:32:07.062Z,26.22
2018-09-03T16:34:38.610Z,26.11
2018-09-03T16:37:08.329Z,26.00
2018-09-03T16:39:37.388Z,25.87
2018-09-03T16:42:06.872Z,25.80
2018-09-03T16:44:36.046Z,25.73
2018-09-03T16:47:05.907Z,25.66
2018-09-03T16:49:45.888Z,25.59
2018-09-03T16:52:15.526Z,25.55
2018-09-03T16:54:44.775Z,25.49
2018-09-03T16:57:14.135Z,25.44
2018-09-03T16:59:47.386Z,25.38
2018-09-03T17:02:19.196Z,25.35
2018-09-03T17:04:48.318Z,25.31
2018-09-03T17:07:22.742Z,25.20
2018-09-03T17:09:51.970Z,25.20
2018-09-03T17:12:24.657Z,25.19
2018-09-03T17:14:57.123Z,25.12
2018-09-03T17:17:26.367Z,25.13
2018-09-03T17:19:58.853Z,25.13
2018-09-03T17:22:28.443Z,25.05
2018-09-03T17:24:57.815Z,25.06
2018-09-03T17:27:27.130Z,25.07
2018-09-03T17:29:58.089Z,25.04
2018-09-03T17:32:27.221Z,25.01
2018-09-03T17:34:56.535Z,24.98
2018-09-03T17:37:27.245Z,24.94
2018-09-03T17:40:02.751Z,24.91
2018-09-03T17:42:32.012Z,24.82
2018-09-03T17:45:05.441Z,24.76
2018-09-03T17:47:34.993Z,24.75
2018-09-03T17:50:17.548Z,24.74
2018-09-03T17:52:55.152Z,24.74
2018-09-03T17:55:25.515Z,24.67
2018-09-03T17:57:55.246Z,24.66
2018-09-03T18:00:26.088Z,24.61
2018-09-03T18:02:55.405Z,24.59
2018-09-03T18:05:24.925Z,24.55
2018-09-03T18:07:54.531Z,24.54
2018-09-03T18:10:24.380Z,24.54
2018-09-03T18:12:57.318Z,24.51
2018-09-03T18:15:27.517Z,24.43
2018-09-03T18:18:05.088Z,24.40
2018-09-03T18:20:39.613Z,24.39
2018-09-03T18:23:09.140Z,24.36
2018-09-03T18:25:38.360Z,24.34
2018-09-03T18:28:09.662Z,24.32
2018-09-03T18:30:39.283Z,24.28
2018-09-03T18:33:08.613Z,24.27
2018-09-03T18:35:37.938Z,24.24
2018-09-03T18:38:07.512Z,24.20
2018-09-03T18:40:36.543Z,24.22
2018-09-03T18:43:06.595Z,24.21
2018-09-03T18:45:36.218Z,24.17
2018-09-03T18:48:10.171Z,24.15
2018-09-03T18:50:39.619Z,24.12
2018-09-03T18:53:08.985Z,24.13
2018-09-03T18:55:38.380Z,24.09
2018-09-03T18:58:07.870Z,24.06
2018-09-03T19:00:38.098Z,24.07
2018-09-03T19:03:12.223Z,24.07
2018-09-03T19:05:41.921Z,24.08
2018-09-03T19:08:16.601Z,24.06
2018-09-03T19:10:45.971Z,24.07
2018-09-03T19:13:19.281Z,24.07
2018-09-03T19:15:49.196Z,24.06
2018-09-03T19:18:19.391Z,24.02
2018-09-03T19:20:48.927Z,24.04
2018-09-03T19:23:18.274Z,24.00
2018-09-03T19:25:53.914Z,24.03
2018-09-03T19:28:24.371Z,24.01
2018-09-03T19:30:59.702Z,24.00
2018-09-03T19:33:29.802Z,23.98
2018-09-03T19:35:59.474Z,23.95
2018-09-03T19:38:28.732Z,23.96
2018-09-03T19:41:01.547Z,23.93
2018-09-03T19:43:31.194Z,23.91
2018-09-03T19:46:00.409Z,23.89
2018-09-03T19:48:30.422Z,23.89
2018-09-03T19:50:59.507Z,23.84
2018-09-03T19:53:28.926Z,23.84
2018-09-03T19:55:58.414Z,23.84
2018-09-03T19:58:27.538Z,23.84
2018-09-03T20:00:56.650Z,23.82
2018-09-03T20:03:26.198Z,23.77
2018-09-03T20:05:55.566Z,23.75
2018-09-03T20:08:24.842Z,23.73
2018-09-03T20:10:54.510Z,23.70
2018-09-03T20:13:24.520Z,23.69
2018-09-03T20:15:54.474Z,23.66
2018-09-03T20:18:32.531Z,23.64
2018-09-03T20:21:01.763Z,23.62
2018-09-03T20:23:34.336Z,23.61
2018-09-03T20:26:04.882Z,23.59
2018-09-03T20:28:40.249Z,23.56
2018-09-03T20:31:09.408Z,23.54
2018-09-03T20:33:39.802Z,23.50
2018-09-03T20:36:08.900Z,23.46
2018-09-03T20:38:38.188Z,23.38
2018-09-03T20:41:07.624Z,23.37
2018-09-03T20:43:36.797Z,23.40
2018-09-03T20:46:07.180Z,23.36
2018-09-03T20:48:42.584Z,23.38
2018-09-03T20:51:11.859Z,23.35
2018-09-03T20:53:51.420Z,23.34
2018-09-03T20:56:20.719Z,23.34
2018-09-03T20:58:57.056Z,23.31
2018-09-03T21:01:26.367Z,23.24
2018-09-03T21:04:03.852Z,23.24
2018-09-03T21:06:33.280Z,23.25
2018-09-03T21:09:07.534Z,23.25
2018-09-03T21:11:36.758Z,23.16
2018-09-03T21:14:08.352Z,23.19
2018-09-03T21:16:39.699Z,23.13
2018-09-03T21:19:09.497Z,23.11
2018-09-03T21:21:40.024Z,23.14
2018-09-03T21:24:12.700Z,23.18
2018-09-03T21:26:41.939Z,23.18
2018-09-03T21:29:11.538Z,23.17
2018-09-03T21:31:40.663Z,23.17
2018-09-03T21:34:09.817Z,23.16
2018-09-03T21:36:42.828Z,23.15
2018-09-03T21:39:11.922Z,23.11
2018-09-03T21:41:41.492Z,23.12
2018-09-03T21:44:11.030Z,23.12
2018-09-03T21:46:40.292Z,23.09
2018-09-03T21:49:09.536Z,23.08
2018-09-03T21:51:38.958Z,23.09
2018-09-03T21:54:08.578Z,23.09
2018-09-03T21:56:37.841Z,23.09
2018-09-03T21:59:10.508Z,23.09
2018-09-03T22:01:44.070Z,23.10
2018-09-03T22:04:13.290Z,23.09
2018-09-03T22:06:42.550Z,23.07
2018-09-03T22:09:11.664Z,23.05
2018-09-03T22:11:41.218Z,23.07
2018-09-03T22:14:12.966Z,23.02
2018-09-03T22:16:42.192Z,23.01
2018-09-03T22:19:11.702Z,23.01
2018-09-03T22:21:42.163Z,23.00
2018-09-03T22:24:11.363Z,22.97
2018-09-03T22:26:43.500Z,22.97
2018-09-03T22:29:12.664Z,22.93
2018-09-03T22:31:41.860Z,22.91
2018-09-03T22:34:13.700Z,22.86
2018-09-03T22:36:43.594Z,22.86
2018-09-03T22:39:12.794Z,22.84
2018-09-03T22:41:42.371Z,22.80
2018-09-03T22:44:12.354Z,22.76
2018-09-03T22:46:44.963Z,22.74
2018-09-03T22:49:14.486Z,22.74
2018-09-03T22:51:43.728Z,22.73
2018-09-03T22:54:12.787Z,22.69
2018-09-03T22:56:42.214Z,22.66
2018-09-03T22:59:11.688Z,22.64
2018-09-03T23:01:40.883Z,22.61
2018-09-03T23:04:10.234Z,22.63
2018-09-03T23:06:39.407Z,22.60
2018-09-03T23:09:12.344Z,22.58
2018-09-03T23:11:41.548Z,22.56
2018-09-03T23:14:10.544Z,22.52
2018-09-03T23:16:42.735Z,22.50
2018-09-03T23:19:11.786Z,22.49
2018-09-03T23:21:40.841Z,22.48
2018-09-03T23:24:09.909Z,22.45
2018-09-03T23:26:38.994Z,22.41
2018-09-03T23:29:09.394Z,22.39
2018-09-03T23:31:39.122Z,22.38
2018-09-03T23:34:08.238Z,22.36
2018-09-03T23:36:38.568Z,22.35
2018-09-03T23:39:07.842Z,22.34
2018-09-03T23:41:37.062Z,22.30
2018-09-03T23:44:06.811Z,22.28
2018-09-03T23:46:35.976Z,22.27
2018-09-03T23:49:05.081Z,22.26
2018-09-03T23:51:34.121Z,22.26
2018-09-03T23:54:05.206Z,22.25
2018-09-03T23:56:34.751Z,22.24
2018-09-03T23:59:03.855Z,22.21
